createdAt,value
2023-01-15T00:00:18.287Z,72.85
2023-01-15T00:02:48.865Z,83.15
2023-01-15T00:05:19.078Z,78.55
2023-01-15T00:07:49.878Z,70.15
2023-01-15T00:10:19.976Z,66.60
2023-01-15T00:12:50.367Z,66.00
2023-01-15T00:15:20.961Z,69.22
2023-01-15T00:17:51.072Z,75.95
2023-01-15T00:20:21.499Z,72.25
2023-01-15T00:22:51.844Z,70.82
2023-01-15T00:25:41.892Z,67.60
2023-01-15T00:28:12.598Z,68.00
2023-01-15T00:30:44.075Z,63.38
2023-01-15T00:33:14.978Z,63.47
2023-01-15T00:35:45.019Z,60.22
2023-01-15T00:38:15.736Z,60.97
2023-01-15T00:40:47.348Z,62.17
2023-01-15T00:43:18.691Z,56.90
2023-01-15T00:45:49.185Z,59.85
2023-01-15T00:48:19.804Z,59.05
2023-01-15T00:50:49.684Z,64.05
2023-01-15T00:53:20.098Z,71.63
2023-01-15T00:55:50.309Z,68.53
2023-01-15T00:58:21.468Z,69.22
2023-01-15T01:00:59.928Z,71.35
2023-01-15T01:03:31.483Z,71.28
2023-01-15T01:06:03.778Z,69.18
2023-01-15T01:08:34.446Z,72.13
2023-01-15T01:11:08.972Z,70.60
2023-01-15T01:13:39.572Z,82.10
2023-01-15T01:16:29.285Z,68.45
2023-01-15T01:19:00.102Z,66.50
2023-01-15T01:21:30.994Z,68.97
2023-01-15T01:24:02.386Z,73.07
2023-01-15T01:26:33.473Z,67.88
2023-01-15T01:29:04.118Z,69.47
2023-01-15T01:31:36.583Z,67.78
2023-01-15T01:34:07.478Z,66.68
2023-01-15T01:36:39.103Z,71.50
2023-01-15T01:39:10.399Z,62.60
2023-01-15T01:41:41.211Z,70.35
2023-01-15T01:44:31.289Z,67.75
2023-01-15T01:47:09.488Z,65.78
2023-01-15T01:49:41.649Z,60.97
2023-01-15T01:52:15.558Z,67.68
2023-01-15T01:54:47.838Z,60.90
2023-01-15T01:57:18.676Z,65.20
2023-01-15T01:59:49.669Z,53.53
2023-01-15T02:02:21.352Z,57.10
2023-01-15T02:04:52.667Z,58.28
2023-01-15T02:07:23.316Z,58.78
2023-01-15T02:09:53.745Z,60.88
2023-01-15T02:12:28.579Z,60.47
2023-01-15T02:15:05.631Z,60.90
2023-01-15T02:17:55.486Z,58.42
2023-01-15T02:20:35.241Z,58.58
2023-01-15T02:23:24.934Z,58.00
2023-01-15T02:26:14.901Z,57.97
2023-01-15T02:28:47.436Z,54.08
2023-01-15T02:31:25.107Z,54.55
2023-01-15T02:34:06.231Z,44.00
2023-01-15T02:36:40.077Z,41.75
2023-01-15T02:39:14.976Z,42.17
2023-01-15T02:41:48.496Z,42.00
2023-01-15T02:44:20.425Z,40.88
2023-01-15T02:46:54.533Z,44.38
2023-01-15T02:49:27.075Z,41.03
2023-01-15T02:52:10.385Z,34.92
2023-01-15T02:54:46.862Z,36.58
2023-01-15T02:57:19.522Z,39.35
2023-01-15T02:59:58.349Z,35.53
2023-01-15T03:02:31.435Z,40.80
2023-01-15T03:05:08.632Z,41.22
2023-01-15T03:07:43.720Z,35.92
2023-01-15T03:10:14.514Z,34.20
2023-01-15T03:13:10.391Z,33.10
2023-01-15T03:16:26.268Z,29.30
2023-01-15T03:18:59.466Z,33.30
2023-01-15T03:21:33.976Z,32.00
2023-01-15T03:24:05.049Z,35.25
2023-01-15T03:26:35.583Z,34.13
2023-01-15T03:29:07.519Z,30.75
2023-01-15T03:31:39.248Z,29.92
2023-01-15T03:34:09.680Z,31.38
2023-01-15T03:36:41.132Z,31.08
2023-01-15T03:39:11.923Z,33.35
2023-01-15T03:42:09.421Z,33.35
2023-01-15T03:44:59.898Z,34.40
2023-01-15T03:47:50.378Z,32.13
2023-01-15T03:50:41.668Z,31.58
2023-01-15T03:53:20.171Z,28.73
2023-01-15T03:56:04.365Z,31.83
2023-01-15T03:58:44.066Z,32.40
2023-01-15T04:01:19.431Z,28.40
2023-01-15T04:03:52.369Z,32.90
2023-01-15T04:06:28.092Z,31.25
2023-01-15T04:09:00.755Z,26.30
2023-01-15T04:11:34.473Z,29.58
2023-01-15T04:14:08.309Z,29.83
2023-01-15T04:16:45.494Z,28.60
2023-01-15T04:19:16.638Z,28.38
2023-01-15T04:21:57.820Z,31.35
2023-01-15T04:24:28.462Z,28.50
2023-01-15T04:26:58.842Z,30.98
2023-01-15T04:29:29.254Z,28.88
2023-01-15T04:31:59.721Z,34.22
2023-01-15T04:34:30.589Z,27.73
2023-01-15T04:37:01.213Z,22.30
2023-01-15T04:39:31.304Z,28.20
2023-01-15T04:42:21.535Z,25.65
2023-01-15T04:44:51.802Z,27.38
2023-01-15T04:47:22.218Z,45.53
2023-01-15T04:49:52.263Z,28.48
2023-01-15T04:52:22.609Z,27.55
2023-01-15T04:54:53.025Z,19.73
2023-01-15T04:57:23.555Z,20.67
2023-01-15T04:59:53.987Z,24.23
2023-01-15T05:02:24.248Z,21.13
2023-01-15T05:04:54.395Z,20.17
2023-01-15T05:07:24.600Z,25.42
2023-01-15T05:09:56.478Z,26.27
2023-01-15T05:12:27.747Z,25.98
2023-01-15T05:14:58.085Z,24.50
2023-01-15T05:17:28.608Z,23.58
2023-01-15T05:19:58.743Z,24.42
2023-01-15T05:22:29.680Z,25.10
2023-01-15T05:25:00.054Z,24.90
2023-01-15T05:27:30.323Z,22.00
2023-01-15T05:30:00.678Z,24.45
2023-01-15T05:32:32.632Z,20.98
2023-01-15T05:35:02.689Z,25.02
2023-01-15T05:37:33.603Z,23.10
2023-01-15T05:40:03.912Z,19.83
2023-01-15T05:42:34.026Z,19.90
2023-01-15T05:45:04.115Z,20.00
2023-01-15T05:47:33.884Z,20.75
2023-01-15T05:50:04.028Z,18.50
2023-01-15T05:52:34.374Z,21.60
2023-01-15T05:55:04.874Z,18.33
2023-01-15T05:57:35.282Z,18.23
2023-01-15T06:00:05.594Z,20.45
2023-01-15T06:02:42.560Z,18.25
2023-01-15T06:05:12.883Z,19.65
2023-01-15T06:07:43.278Z,23.70
2023-01-15T06:10:13.415Z,16.85
2023-01-15T06:12:43.628Z,17.20
2023-01-15T06:15:15.226Z,19.13
2023-01-15T06:17:45.623Z,18.25
2023-01-15T06:20:15.750Z,16.88
2023-01-15T06:22:46.070Z,21.15
2023-01-15T06:25:16.503Z,18.17
2023-01-15T06:27:46.527Z,20.45
2023-01-15T06:30:17.061Z,17.52
2023-01-15T06:32:47.627Z,19.13
2023-01-15T06:35:17.741Z,20.13
2023-01-15T06:37:48.538Z,24.05
2023-01-15T06:40:18.997Z,18.45
2023-01-15T06:43:09.000Z,22.23
2023-01-15T06:46:03.092Z,19.58
2023-01-15T06:48:33.164Z,19.33
2023-01-15T06:51:04.236Z,18.92
2023-01-15T06:53:34.707Z,17.33
2023-01-15T06:56:05.273Z,21.33
2023-01-15T06:58:35.836Z,19.80
2023-01-15T07:01:09.444Z,18.05
2023-01-15T07:03:39.764Z,19.27
2023-01-15T07:06:11.583Z,19.63
2023-01-15T07:08:42.187Z,19.58
2023-01-15T07:11:12.614Z,17.42
2023-01-15T07:13:42.753Z,17.58
2023-01-15T07:16:28.319Z,18.83
2023-01-15T07:18:58.752Z,16.98
2023-01-15T07:21:29.144Z,16.65
2023-01-15T07:24:02.916Z,16.55
2023-01-15T07:26:33.248Z,17.42
2023-01-15T07:29:03.738Z,23.55
2023-01-15T07:31:34.366Z,17.58
2023-01-15T07:34:04.954Z,20.10
2023-01-15T07:36:35.591Z,19.00
2023-01-15T07:39:07.713Z,17.33
2023-01-15T07:41:58.476Z,21.02
2023-01-15T07:44:48.208Z,18.13
2023-01-15T07:47:40.474Z,17.13
2023-01-15T07:50:18.004Z,22.38
2023-01-15T07:52:48.646Z,19.50
2023-01-15T07:55:19.275Z,16.08
2023-01-15T07:57:49.586Z,18.67
2023-01-15T08:00:23.176Z,18.95
2023-01-15T08:02:53.703Z,16.40
2023-01-15T08:05:24.235Z,16.95
2023-01-15T08:07:54.858Z,17.27
2023-01-15T08:10:26.816Z,15.20
2023-01-15T08:13:16.747Z,15.77
2023-01-15T08:15:47.071Z,15.82
2023-01-15T08:18:17.436Z,17.65
2023-01-15T08:20:47.548Z,19.10
2023-01-15T08:23:17.604Z,16.23
2023-01-15T08:25:47.977Z,14.75
2023-01-15T08:28:18.170Z,16.05
2023-01-15T08:30:49.096Z,17.83
2023-01-15T08:33:19.824Z,17.20
2023-01-15T08:35:51.011Z,18.30
2023-01-15T08:38:21.436Z,21.30
2023-01-15T08:41:01.821Z,18.02
2023-01-15T08:43:34.206Z,17.15
2023-01-15T08:46:05.784Z,17.30
2023-01-15T08:48:36.896Z,22.30
2023-01-15T08:51:09.149Z,19.10
2023-01-15T08:53:40.410Z,17.75
2023-01-15T08:56:18.066Z,19.75
2023-01-15T08:58:49.599Z,19.13
2023-01-15T09:01:20.146Z,26.70
2023-01-15T09:03:50.626Z,20.05
2023-01-15T09:06:21.014Z,19.55
2023-01-15T09:08:52.411Z,19.83
2023-01-15T09:11:22.955Z,18.25
2023-01-15T09:13:53.372Z,17.70
2023-01-15T09:16:23.903Z,17.73
2023-01-15T09:18:54.533Z,21.88
2023-01-15T09:21:24.959Z,19.65
2023-01-15T09:23:55.361Z,17.98
2023-01-15T09:26:35.947Z,21.92
2023-01-15T09:29:07.338Z,19.30
2023-01-15T09:31:37.829Z,19.20
2023-01-15T09:34:08.371Z,20.50
2023-01-15T09:36:40.537Z,18.95
2023-01-15T09:39:13.179Z,20.67
2023-01-15T09:42:14.950Z,20.85
2023-01-15T09:45:04.630Z,17.20
2023-01-15T09:47:54.763Z,17.65
2023-01-15T09:50:38.911Z,19.88
2023-01-15T09:53:17.851Z,18.38
2023-01-15T09:55:56.378Z,29.20
2023-01-15T09:58:34.353Z,19.77
2023-01-15T10:01:04.417Z,24.38
2023-01-15T10:03:39.775Z,19.27
2023-01-15T10:06:18.685Z,19.38
2023-01-15T10:08:51.999Z,24.50
2023-01-15T10:12:03.886Z,18.60
2023-01-15T10:14:40.911Z,23.20
2023-01-15T10:17:20.831Z,23.55
2023-01-15T10:19:51.191Z,24.05
2023-01-15T10:22:41.445Z,19.30
2023-01-15T10:25:15.604Z,21.00
2023-01-15T10:27:50.157Z,30.27
2023-01-15T10:30:24.524Z,29.25
2023-01-15T10:33:03.168Z,22.02
2023-01-15T10:35:53.515Z,27.88
2023-01-15T10:38:35.864Z,35.45
2023-01-15T10:41:13.258Z,29.42
2023-01-15T10:43:49.522Z,24.70
2023-01-15T10:46:21.755Z,23.80
2023-01-15T10:48:54.346Z,29.17
2023-01-15T10:51:26.825Z,50.85
2023-01-15T10:54:04.072Z,56.90
2023-01-15T10:56:47.710Z,42.20
2023-01-15T10:59:26.886Z,25.63
2023-01-15T11:01:58.234Z,31.40
2023-01-15T11:04:32.546Z,29.83
2023-01-15T11:07:04.490Z,27.23
2023-01-15T11:09:36.369Z,29.25
2023-01-15T11:12:33.602Z,26.45
2023-01-15T11:15:23.660Z,35.45
2023-01-15T11:18:17.231Z,36.15
2023-01-15T11:20:48.956Z,44.25
2023-01-15T11:23:21.022Z,47.63
2023-01-15T11:25:59.629Z,46.88
2023-01-15T11:28:44.749Z,46.92
2023-01-15T11:31:15.990Z,44.35
2023-01-15T11:33:48.148Z,47.60
2023-01-15T11:36:26.241Z,45.22
2023-01-15T11:38:56.717Z,47.05
2023-01-15T11:41:50.324Z,54.58
2023-01-15T11:44:41.079Z,41.60
2023-01-15T11:47:34.841Z,41.42
2023-01-15T11:50:25.168Z,41.20
2023-01-15T11:52:57.357Z,51.60
2023-01-15T11:55:29.427Z,60.08
2023-01-15T11:58:00.296Z,51.05
2023-01-15T12:00:37.423Z,61.10
2023-01-15T12:03:15.637Z,66.90
2023-01-15T12:05:50.577Z,145.10
2023-01-15T12:08:35.285Z,118.43
2023-01-15T12:11:26.623Z,131.02
2023-01-15T12:14:16.836Z,183.63
2023-01-15T12:16:51.778Z,164.55
2023-01-15T12:19:41.465Z,172.38
2023-01-15T12:22:31.198Z,129.88
2023-01-15T12:25:21.015Z,121.55
2023-01-15T12:27:59.528Z,116.32
2023-01-15T12:30:49.179Z,118.00
2023-01-15T12:33:39.832Z,108.05
2023-01-15T12:36:13.293Z,103.43
2023-01-15T12:39:03.979Z,88.78
2023-01-15T12:41:57.899Z,107.10
2023-01-15T12:45:07.873Z,80.97
2023-01-15T12:47:57.632Z,74.85
2023-01-15T12:50:32.334Z,83.00
2023-01-15T12:53:08.925Z,77.80
2023-01-15T12:55:41.814Z,80.18
2023-01-15T12:58:16.545Z,74.43
2023-01-15T13:00:47.721Z,71.85
2023-01-15T13:03:26.383Z,71.13
2023-01-15T13:06:04.967Z,76.82
2023-01-15T13:08:44.990Z,64.97
2023-01-15T13:11:15.203Z,59.20
2023-01-15T13:13:59.482Z,60.22
2023-01-15T13:16:37.593Z,65.28
2023-01-15T13:19:27.759Z,66.57
2023-01-15T13:22:00.760Z,71.30
2023-01-15T13:24:50.983Z,64.60
2023-01-15T13:27:29.217Z,59.88
2023-01-15T13:30:18.451Z,65.15
2023-01-15T13:32:51.359Z,67.90
2023-01-15T13:35:46.650Z,70.15
2023-01-15T13:38:22.408Z,161.43
2023-01-15T13:40:57.835Z,158.98
2023-01-15T13:43:35.515Z,72.22
2023-01-15T13:46:07.215Z,65.68
2023-01-15T13:48:45.752Z,68.80
2023-01-15T13:51:40.823Z,64.38
2023-01-15T13:54:30.237Z,67.35
2023-01-15T13:57:17.752Z,62.17
2023-01-15T13:59:49.061Z,69.35
2023-01-15T14:02:40.184Z,63.42
2023-01-15T14:05:30.636Z,63.85
2023-01-15T14:08:03.035Z,70.50
2023-01-15T14:10:41.047Z,66.55
2023-01-15T14:13:31.142Z,65.85
2023-01-15T14:16:08.151Z,69.20
2023-01-15T14:18:46.324Z,60.40
2023-01-15T14:21:36.504Z,56.05
2023-01-15T14:24:37.985Z,49.45
2023-01-15T14:27:17.281Z,58.83
2023-01-15T14:30:10.289Z,53.38
2023-01-15T14:33:00.202Z,48.63
2023-01-15T14:35:31.102Z,48.78
2023-01-15T14:38:06.342Z,47.38
2023-01-15T14:40:38.600Z,56.13
2023-01-15T14:43:20.082Z,47.83
2023-01-15T14:45:54.229Z,53.45
2023-01-15T14:48:44.294Z,48.80
2023-01-15T14:51:19.830Z,47.13
2023-01-15T14:54:10.048Z,48.33
2023-01-15T14:56:45.241Z,51.25
2023-01-15T14:59:35.748Z,48.80
2023-01-15T15:02:26.923Z,48.95
2023-01-15T15:04:58.661Z,48.13
2023-01-15T15:07:49.823Z,45.08
2023-01-15T15:10:26.825Z,50.58
2023-01-15T15:13:18.257Z,47.53
2023-01-15T15:15:53.425Z,55.38
2023-01-15T15:18:37.253Z,49.90
2023-01-15T15:21:27.230Z,49.78
2023-01-15T15:24:05.242Z,91.13
2023-01-15T15:26:37.402Z,140.05
2023-01-15T15:29:15.629Z,65.05
2023-01-15T15:31:50.502Z,56.95
2023-01-15T15:34:26.270Z,51.50
2023-01-15T15:36:58.179Z,59.17
2023-01-15T15:39:50.869Z,56.33
2023-01-15T15:42:47.023Z,56.60
2023-01-15T15:45:46.069Z,50.17
2023-01-15T15:48:43.460Z,54.42
2023-01-15T15:51:33.570Z,60.42
2023-01-15T15:54:23.366Z,56.42
2023-01-15T15:57:13.810Z,61.08
2023-01-15T15:59:54.485Z,62.75
2023-01-15T16:02:40.240Z,54.85
2023-01-15T16:05:33.056Z,65.65
2023-01-15T16:08:23.154Z,59.92
2023-01-15T16:10:58.206Z,63.15
2023-01-15T16:13:32.675Z,68.57
2023-01-15T16:16:04.021Z,59.22
2023-01-15T16:18:37.919Z,61.45
2023-01-15T16:21:08.353Z,58.58
2023-01-15T16:23:39.452Z,56.22
2023-01-15T16:26:16.499Z,67.93
2023-01-15T16:28:49.013Z,61.03
2023-01-15T16:31:21.080Z,63.50
2023-01-15T16:33:57.764Z,61.25
2023-01-15T16:36:29.358Z,55.03
2023-01-15T16:38:59.739Z,56.65
2023-01-15T16:41:35.963Z,53.08
2023-01-15T16:44:08.052Z,153.80
2023-01-15T16:46:42.101Z,189.77
2023-01-15T16:49:31.699Z,58.50
2023-01-15T16:52:03.420Z,55.20
2023-01-15T16:54:48.980Z,54.53
2023-01-15T16:57:30.287Z,53.42
2023-01-15T17:00:03.520Z,52.47
2023-01-15T17:02:43.119Z,53.97
2023-01-15T17:05:33.148Z,49.65
2023-01-15T17:08:03.265Z,53.05
2023-01-15T17:10:33.134Z,53.08
2023-01-15T17:13:03.693Z,56.72
2023-01-15T17:15:42.247Z,55.25
2023-01-15T17:18:22.499Z,52.53
2023-01-15T17:20:53.544Z,52.13
2023-01-15T17:23:26.417Z,54.92
2023-01-15T17:25:57.654Z,55.75
2023-01-15T17:28:28.123Z,55.22
2023-01-15T17:31:03.449Z,59.67
2023-01-15T17:33:34.306Z,60.05
2023-01-15T17:36:07.394Z,51.10
2023-01-15T17:38:39.123Z,54.53
2023-01-15T17:41:12.429Z,50.70
2023-01-15T17:43:42.706Z,51.97
2023-01-15T17:46:12.975Z,56.88
2023-01-15T17:48:43.643Z,51.60
2023-01-15T17:51:15.352Z,56.35
2023-01-15T17:53:45.747Z,54.45
2023-01-15T17:56:35.368Z,56.78
2023-01-15T17:59:25.081Z,57.67
2023-01-15T18:02:14.767Z,49.88
2023-01-15T18:05:10.453Z,53.70
2023-01-15T18:07:43.667Z,53.65
2023-01-15T18:10:20.497Z,50.88
2023-01-15T18:12:50.730Z,57.22
2023-01-15T18:15:21.621Z,107.47
2023-01-15T18:17:52.057Z,394.10
2023-01-15T18:20:22.716Z,70.30
2023-01-15T18:22:53.263Z,60.67
2023-01-15T18:25:25.975Z,56.30
2023-01-15T18:27:56.585Z,58.03
2023-01-15T18:30:26.716Z,60.53
2023-01-15T18:32:57.468Z,56.28
2023-01-15T18:35:27.579Z,63.97
2023-01-15T18:37:58.685Z,60.65
2023-01-15T18:40:32.818Z,57.30
2023-01-15T18:43:22.796Z,61.17
2023-01-15T18:46:12.804Z,64.25
2023-01-15T18:48:43.121Z,60.33
2023-01-15T18:51:13.667Z,61.22
2023-01-15T18:53:43.792Z,63.95
2023-01-15T18:56:13.903Z,73.03
2023-01-15T18:58:45.133Z,69.57
2023-01-15T19:01:15.655Z,68.35
2023-01-15T19:03:45.767Z,71.47
2023-01-15T19:06:16.111Z,69.70
2023-01-15T19:08:46.185Z,72.18
2023-01-15T19:11:16.640Z,70.47
2023-01-15T19:14:06.393Z,68.38
2023-01-15T19:16:56.036Z,62.92
2023-01-15T19:19:26.264Z,64.00
2023-01-15T19:22:16.519Z,70.43
2023-01-15T19:24:46.881Z,69.75
2023-01-15T19:27:17.815Z,64.30
2023-01-15T19:29:48.069Z,67.05
2023-01-15T19:32:19.061Z,67.13
2023-01-15T19:34:49.692Z,67.10
2023-01-15T19:37:19.869Z,68.07
2023-01-15T19:39:50.341Z,64.88
2023-01-15T19:42:41.275Z,62.03
2023-01-15T19:45:33.202Z,63.72
2023-01-15T19:48:23.026Z,69.57
2023-01-15T19:50:55.728Z,61.08
2023-01-15T19:53:25.881Z,60.15
2023-01-15T19:55:56.479Z,62.05
2023-01-15T19:58:27.012Z,64.05
2023-01-15T20:00:57.207Z,56.72
2023-01-15T20:03:27.277Z,60.90
2023-01-15T20:05:57.750Z,59.72
2023-01-15T20:08:28.564Z,51.63
2023-01-15T20:10:59.078Z,53.25
2023-01-15T20:13:49.750Z,55.85
2023-01-15T20:16:26.956Z,51.70
2023-01-15T20:18:57.677Z,52.20
2023-01-15T20:21:27.978Z,52.95
2023-01-15T20:23:58.345Z,49.45
2023-01-15T20:26:29.207Z,51.85
2023-01-15T20:28:59.252Z,54.30
2023-01-15T20:31:29.764Z,54.03
2023-01-15T20:34:03.212Z,49.75
2023-01-15T20:36:36.079Z,55.17
2023-01-15T20:39:06.800Z,48.78
2023-01-15T20:41:56.540Z,52.65
2023-01-15T20:44:45.952Z,49.75
2023-01-15T20:47:35.921Z,59.33
2023-01-15T20:50:06.753Z,51.58
2023-01-15T20:52:36.827Z,49.17
2023-01-15T20:55:08.033Z,49.67
2023-01-15T20:57:40.053Z,51.05
2023-01-15T21:00:18.192Z,54.17
2023-01-15T21:02:48.390Z,51.80
2023-01-15T21:05:18.516Z,44.15
2023-01-15T21:07:48.459Z,51.10
2023-01-15T21:10:18.525Z,51.78
2023-01-15T21:12:48.971Z,50.08
2023-01-15T21:15:19.561Z,51.78
2023-01-15T21:17:50.407Z,51.10
2023-01-15T21:20:21.306Z,48.53
2023-01-15T21:22:52.683Z,47.38
2023-01-15T21:25:22.729Z,45.75
2023-01-15T21:27:52.823Z,46.47
2023-01-15T21:30:23.016Z,46.67
2023-01-15T21:32:53.164Z,49.78
2023-01-15T21:35:23.419Z,46.33
2023-01-15T21:37:53.734Z,44.47
2023-01-15T21:40:23.868Z,48.15
2023-01-15T21:43:13.790Z,49.05
2023-01-15T21:45:43.942Z,51.80
2023-01-15T21:48:14.059Z,51.25
2023-01-15T21:50:44.501Z,47.10
2023-01-15T21:53:14.957Z,54.13
2023-01-15T21:55:51.101Z,51.15
2023-01-15T21:58:21.584Z,50.80
2023-01-15T22:00:51.859Z,48.20
2023-01-15T22:03:22.035Z,52.17
2023-01-15T22:05:52.152Z,46.00
2023-01-15T22:08:22.448Z,50.08
2023-01-15T22:10:54.474Z,48.83
2023-01-15T22:13:24.719Z,50.88
2023-01-15T22:15:57.715Z,54.00
2023-01-15T22:18:28.621Z,57.92
2023-01-15T22:21:02.540Z,58.78
2023-01-15T22:23:33.142Z,53.67
2023-01-15T22:26:03.590Z,51.78
2023-01-15T22:28:33.592Z,54.60
2023-01-15T22:31:07.568Z,54.15
2023-01-15T22:33:38.360Z,56.47
2023-01-15T22:36:13.541Z,57.17
2023-01-15T22:38:44.124Z,57.88
2023-01-15T22:41:14.528Z,56.83
2023-01-15T22:43:44.989Z,51.67
2023-01-15T22:46:15.861Z,55.33
2023-01-15T22:48:45.879Z,54.65
2023-01-15T22:51:16.179Z,52.83
2023-01-15T22:53:46.537Z,60.08
2023-01-15T22:56:16.676Z,55.05
2023-01-15T22:58:47.169Z,57.80
2023-01-15T23:01:17.723Z,63.72
2023-01-15T23:03:48.349Z,63.55
2023-01-15T23:06:22.762Z,56.38
2023-01-15T23:08:58.168Z,63.60
2023-01-15T23:11:28.552Z,59.70
2023-01-15T23:13:59.210Z,58.83
2023-01-15T23:16:29.879Z,63.30
2023-01-15T23:19:00.603Z,58.90
2023-01-15T23:21:31.509Z,63.00
2023-01-15T23:24:02.877Z,58.88
2023-01-15T23:26:34.689Z,58.92
2023-01-15T23:29:05.090Z,58.13
2023-01-15T23:31:35.721Z,54.40
2023-01-15T23:34:06.239Z,53.92
2023-01-15T23:36:36.785Z,56.80
2023-01-15T23:39:06.985Z,56.08
2023-01-15T23:41:57.016Z,57.20
2023-01-15T23:44:47.040Z,54.45
2023-01-15T23:47:17.119Z,57.00
2023-01-15T23:49:47.135Z,57.20
2023-01-15T23:52:17.218Z,61.42
2023-01-15T23:54:47.618Z,59.90
2023-01-15T23:57:17.977Z,57.03
2023-01-15T23:59:48.078Z,67.22
